sensor_id;sensor_type;location;lat;lon;timestamp;temperature;humidity
19363;DHT22;9817;50.80926400;5.16316200;2024-01-15T00:01:17;2.40;99.90
19363;DHT22;9817;50.80926400;5.16316200;2024-01-15T00:03:43;2.40;99.90
19363;DHT22;9817;50.80926400;5.16316200;2024-01-15T00:06:09;2.40;99.90
19363;DHT22;9817;50.80926400;5.16316200;2024-01-15T00:08:34;2.40;99.90
19363;DHT22;9817;50.80926400;5.16316200;2024-01-15T00:11:00;2.40;99.90
19363;DHT22;9817;50.80926400;5.16316200;2024-01-15T00:13:25;2.50;99.90
19363;DHT22;9817;50.80926400;5.16316200;2024-01-15T00:15:51;2.50;99.90
19363;DHT22;9817;50.80926400;5.16316200;2024-01-15T00:18:17;2.50;99.90
19363;DHT22;9817;50.80926400;5.16316200;2024-01-15T00:20:42;2.60;99.90
19363;DHT22;9817;50.80926400;5.16316200;2024-01-15T00:23:08;2.60;99.90
19363;DHT22;9817;50.80926400;5.16316200;2024-01-15T00:25:33;2.60;99.90
19363;DHT22;9817;50.80926400;5.16316200;2024-01-15T00:27:59;2.60;99.90
19363;DHT22;9817;50.80926400;5.16316200;2024-01-15T00:30:25;2.50;99.90
19363;DHT22;9817;50.80926400;5.16316200;2024-01-15T00:32:50;2.50;99.90
19363;DHT22;9817;50.80926400;5.16316200;2024-01-15T00:35:16;2.60;99.90
19363;DHT22;9817;50.80926400;5.16316200;2024-01-15T00:37:41;2.50;99.90
19363;DHT22;9817;50.80926400;5.16316200;2024-01-15T00:40:07;2.50;99.90
19363;DHT22;9817;50.80926400;5.16316200;2024-01-15T00:42:34;2.50;99.90
19363;DHT22;9817;50.80926400;5.16316200;2024-01-15T00:44:59;2.40;99.90
19363;DHT22;9817;50.80926400;5.16316200;2024-01-15T00:47:25;2.50;99.90
19363;DHT22;9817;50.80926400;5.16316200;2024-01-15T00:49:51;2.50;99.90
19363;DHT22;9817;50.80926400;5.16316200;2024-01-15T00:52:16;2.60;99.90
19363;DHT22;9817;50.80926400;5.16316200;2024-01-15T00:54:42;2.60;99.90
19363;DHT22;9817;50.80926400;5.16316200;2024-01-15T00:57:08;2.80;99.90
19363;DHT22;9817;50.80926400;5.16316200;2024-01-15T00:59:33;2.80;99.90
19363;DHT22;9817;50.80926400;5.16316200;2024-01-15T01:01:59;2.90;99.90
19363;DHT22;9817;50.80926400;5.16316200;2024-01-15T01:04:25;2.80;99.90
19363;DHT22;9817;50.80926400;5.16316200;2024-01-15T01:06:50;2.70;99.90
19363;DHT22;9817;50.80926400;5.16316200;2024-01-15T01:09:16;2.70;99.90
19363;DHT22;9817;50.80926400;5.16316200;2024-01-15T01:11:41;2.90;99.90
19363;DHT22;9817;50.80926400;5.16316200;2024-01-15T01:14:07;2.80;99.90
19363;DHT22;9817;50.80926400;5.16316200;2024-01-15T01:16:33;2.80;99.90
19363;DHT22;9817;50.80926400;5.16316200;2024-01-15T01:19:05;2.90;99.90
19363;DHT22;9817;50.80926400;5.16316200;2024-01-15T01:21:31;2.90;99.90
19363;DHT22;9817;50.80926400;5.16316200;2024-01-15T01:23:56;3.00;99.90
19363;DHT22;9817;50.80926400;5.16316200;2024-01-15T01:26:22;2.90;99.90
19363;DHT22;9817;50.80926400;5.16316200;2024-01-15T01:28:48;3.00;99.90
19363;DHT22;9817;50.80926400;5.16316200;2024-01-15T01:31:13;3.10;99.90
19363;DHT22;9817;50.80926400;5.16316200;2024-01-15T01:33:39;3.10;99.90
19363;DHT22;9817;50.80926400;5.16316200;2024-01-15T01:36:10;3.00;99.90
19363;DHT22;9817;50.80926400;5.16316200;2024-01-15T01:38:37;2.90;99.90
19363;DHT22;9817;50.80926400;5.16316200;2024-01-15T01:41:03;3.00;99.90
19363;DHT22;9817;50.80926400;5.16316200;2024-01-15T01:43:28;3.00;99.90
19363;DHT22;9817;50.80926400;5.16316200;2024-01-15T01:45:56;3.10;99.90
19363;DHT22;9817;50.80926400;5.16316200;2024-01-15T01:48:22;3.20;99.90
19363;DHT22;9817;50.80926400;5.16316200;2024-01-15T01:50:50;3.20;99.90
19363;DHT22;9817;50.80926400;5.16316200;2024-01-15T01:53:16;3.20;99.90
19363;DHT22;9817;50.80926400;5.16316200;2024-01-15T01:55:42;3.10;99.90
19363;DHT22;9817;50.80926400;5.16316200;2024-01-15T01:58:08;2.90;99.90
19363;DHT22;9817;50.80926400;5.16316200;2024-01-15T02:00:34;3.00;99.90
19363;DHT22;9817;50.80926400;5.16316200;2024-01-15T02:03:00;3.00;99.90
19363;DHT22;9817;50.80926400;5.16316200;2024-01-15T02:05:29;2.90;99.90
19363;DHT22;9817;50.80926400;5.16316200;2024-01-15T02:07:55;2.90;99.90
19363;DHT22;9817;50.80926400;5.16316200;2024-01-15T02:10:21;2.80;99.90
19363;DHT22;9817;50.80926400;5.16316200;2024-01-15T02:12:47;2.80;99.90
19363;DHT22;9817;50.80926400;5.16316200;2024-01-15T02:15:14;2.80;99.90
19363;DHT22;9817;50.80926400;5.16316200;2024-01-15T02:18:03;2.60;99.90
19363;DHT22;9817;50.80926400;5.16316200;2024-01-15T02:20:29;2.60;99.90
19363;DHT22;9817;50.80926400;5.16316200;2024-01-15T02:23:22;2.70;99.90
19363;DHT22;9817;50.80926400;5.16316200;2024-01-15T02:25:47;2.70;99.90
19363;DHT22;9817;50.80926400;5.16316200;2024-01-15T02:28:17;2.80;99.90
19363;DHT22;9817;50.80926400;5.16316200;2024-01-15T02:30:43;2.80;99.90
19363;DHT22;9817;50.80926400;5.16316200;2024-01-15T02:33:10;2.90;99.90
19363;DHT22;9817;50.80926400;5.16316200;2024-01-15T02:35:36;3.00;99.90
19363;DHT22;9817;50.80926400;5.16316200;2024-01-15T02:38:03;3.00;99.90
19363;DHT22;9817;50.80926400;5.16316200;2024-01-15T02:40:29;2.90;99.90
19363;DHT22;9817;50.80926400;5.16316200;2024-01-15T02:42:54;3.00;99.90
19363;DHT22;9817;50.80926400;5.16316200;2024-01-15T02:45:20;3.00;99.90
19363;DHT22;9817;50.80926400;5.16316200;2024-01-15T02:47:46;3.00;99.90
19363;DHT22;9817;50.80926400;5.16316200;2024-01-15T02:50:12;3.00;99.90
19363;DHT22;9817;50.80926400;5.16316200;2024-01-15T02:52:37;2.80;99.90
19363;DHT22;9817;50.80926400;5.16316200;2024-01-15T02:55:03;2.80;99.90
19363;DHT22;9817;50.80926400;5.16316200;2024-01-15T02:57:29;2.80;99.90
19363;DHT22;9817;50.80926400;5.16316200;2024-01-15T02:59:55;2.70;99.90
19363;DHT22;9817;50.80926400;5.16316200;2024-01-15T03:02:20;2.90;99.90
19363;DHT22;9817;50.80926400;5.16316200;2024-01-15T03:04:46;3.10;99.90
19363;DHT22;9817;50.80926400;5.16316200;2024-01-15T03:07:12;3.00;99.90
19363;DHT22;9817;50.80926400;5.16316200;2024-01-15T03:09:38;3.10;99.90
19363;DHT22;9817;50.80926400;5.16316200;2024-01-15T03:12:04;3.00;99.90
19363;DHT22;9817;50.80926400;5.16316200;2024-01-15T03:14:29;3.00;99.90
19363;DHT22;9817;50.80926400;5.16316200;2024-01-15T03:16:55;3.00;99.90
19363;DHT22;9817;50.80926400;5.16316200;2024-01-15T03:19:21;3.10;99.90
19363;DHT22;9817;50.80926400;5.16316200;2024-01-15T03:21:46;3.00;99.90
19363;DHT22;9817;50.80926400;5.16316200;2024-01-15T03:24:12;2.90;99.90
19363;DHT22;9817;50.80926400;5.16316200;2024-01-15T03:26:38;2.90;99.90
19363;DHT22;9817;50.80926400;5.16316200;2024-01-15T03:29:03;3.10;99.90
19363;DHT22;9817;50.80926400;5.16316200;2024-01-15T03:31:29;3.10;99.90
19363;DHT22;9817;50.80926400;5.16316200;2024-01-15T03:33:56;2.90;99.90
19363;DHT22;9817;50.80926400;5.16316200;2024-01-15T03:36:21;3.00;99.90
19363;DHT22;9817;50.80926400;5.16316200;2024-01-15T03:38:47;3.20;99.90
19363;DHT22;9817;50.80926400;5.16316200;2024-01-15T03:41:13;3.00;99.90
19363;DHT22;9817;50.80926400;5.16316200;2024-01-15T03:43:39;3.00;99.90
19363;DHT22;9817;50.80926400;5.16316200;2024-01-15T03:46:05;2.80;99.90
19363;DHT22;9817;50.80926400;5.16316200;2024-01-15T03:48:31;2.80;99.90
19363;DHT22;9817;50.80926400;5.16316200;2024-01-15T03:50:56;2.70;99.90
19363;DHT22;9817;50.80926400;5.16316200;2024-01-15T03:53:22;2.70;99.90
19363;DHT22;9817;50.80926400;5.16316200;2024-01-15T03:55:48;2.70;99.90
19363;DHT22;9817;50.80926400;5.16316200;2024-01-15T03:58:14;2.80;99.90
19363;DHT22;9817;50.80926400;5.16316200;2024-01-15T04:00:40;2.90;99.90
19363;DHT22;9817;50.80926400;5.16316200;2024-01-15T04:03:06;3.00;99.90
19363;DHT22;9817;50.80926400;5.16316200;2024-01-15T04:05:32;3.00;99.90
19363;DHT22;9817;50.80926400;5.16316200;2024-01-15T04:07:58;2.90;99.90
19363;DHT22;9817;50.80926400;5.16316200;2024-01-15T04:10:23;2.90;99.90
19363;DHT22;9817;50.80926400;5.16316200;2024-01-15T04:12:49;2.90;99.90
19363;DHT22;9817;50.80926400;5.16316200;2024-01-15T04:15:15;3.00;99.90
19363;DHT22;9817;50.80926400;5.16316200;2024-01-15T04:17:41;2.90;99.90
19363;DHT22;9817;50.80926400;5.16316200;2024-01-15T04:20:07;3.00;99.90
19363;DHT22;9817;50.80926400;5.16316200;2024-01-15T04:22:34;3.00;99.90
19363;DHT22;9817;50.80926400;5.16316200;2024-01-15T04:25:01;3.00;99.90
19363;DHT22;9817;50.80926400;5.16316200;2024-01-15T04:27:26;2.90;99.90
19363;DHT22;9817;50.80926400;5.16316200;2024-01-15T04:29:52;2.90;99.90
19363;DHT22;9817;50.80926400;5.16316200;2024-01-15T04:32:18;2.90;99.90
19363;DHT22;9817;50.80926400;5.16316200;2024-01-15T04:34:44;2.80;99.90
19363;DHT22;9817;50.80926400;5.16316200;2024-01-15T04:37:09;2.80;99.90
19363;DHT22;9817;50.80926400;5.16316200;2024-01-15T04:39:35;2.60;99.90
19363;DHT22;9817;50.80926400;5.16316200;2024-01-15T04:42:01;2.60;99.90
19363;DHT22;9817;50.80926400;5.16316200;2024-01-15T04:44:26;2.70;99.90
19363;DHT22;9817;50.80926400;5.16316200;2024-01-15T04:46:52;2.70;99.90
19363;DHT22;9817;50.80926400;5.16316200;2024-01-15T04:49:18;2.80;99.90
19363;DHT22;9817;50.80926400;5.16316200;2024-01-15T04:51:43;2.60;99.90
19363;DHT22;9817;50.80926400;5.16316200;2024-01-15T04:54:09;2.50;99.90
19363;DHT22;9817;50.80926400;5.16316200;2024-01-15T04:56:34;2.60;99.90
19363;DHT22;9817;50.80926400;5.16316200;2024-01-15T04:59:00;2.60;99.90
19363;DHT22;9817;50.80926400;5.16316200;2024-01-15T05:01:30;2.50;99.90
19363;DHT22;9817;50.80926400;5.16316200;2024-01-15T05:03:56;2.60;99.90
19363;DHT22;9817;50.80926400;5.16316200;2024-01-15T05:06:22;2.60;99.90
19363;DHT22;9817;50.80926400;5.16316200;2024-01-15T05:08:47;2.70;99.90
19363;DHT22;9817;50.80926400;5.16316200;2024-01-15T05:11:13;2.60;99.90
19363;DHT22;9817;50.80926400;5.16316200;2024-01-15T05:13:39;2.50;99.90
19363;DHT22;9817;50.80926400;5.16316200;2024-01-15T05:16:04;2.50;99.90
19363;DHT22;9817;50.80926400;5.16316200;2024-01-15T05:18:30;2.40;99.90
19363;DHT22;9817;50.80926400;5.16316200;2024-01-15T05:20:55;2.40;99.90
19363;DHT22;9817;50.80926400;5.16316200;2024-01-15T05:23:21;2.40;99.90
19363;DHT22;9817;50.80926400;5.16316200;2024-01-15T05:25:47;2.50;99.90
19363;DHT22;9817;50.80926400;5.16316200;2024-01-15T05:28:14;2.50;99.90
19363;DHT22;9817;50.80926400;5.16316200;2024-01-15T05:30:39;2.50;99.90
19363;DHT22;9817;50.80926400;5.16316200;2024-01-15T05:33:05;2.30;99.90
19363;DHT22;9817;50.80926400;5.16316200;2024-01-15T05:35:33;2.30;99.90
19363;DHT22;9817;50.80926400;5.16316200;2024-01-15T05:37:58;2.40;99.90
19363;DHT22;9817;50.80926400;5.16316200;2024-01-15T05:40:24;2.30;99.90
19363;DHT22;9817;50.80926400;5.16316200;2024-01-15T05:42:50;2.20;99.90
19363;DHT22;9817;50.80926400;5.16316200;2024-01-15T05:45:16;2.10;99.90
19363;DHT22;9817;50.80926400;5.16316200;2024-01-15T05:47:41;2.20;99.90
19363;DHT22;9817;50.80926400;5.16316200;2024-01-15T05:50:09;2.20;99.90
19363;DHT22;9817;50.80926400;5.16316200;2024-01-15T05:52:34;2.10;99.90
19363;DHT22;9817;50.80926400;5.16316200;2024-01-15T05:55:00;2.10;99.90
19363;DHT22;9817;50.80926400;5.16316200;2024-01-15T05:57:26;2.00;99.90
19363;DHT22;9817;50.80926400;5.16316200;2024-01-15T05:59:51;2.00;99.90
19363;DHT22;9817;50.80926400;5.16316200;2024-01-15T06:02:17;2.10;99.90
19363;DHT22;9817;50.80926400;5.16316200;2024-01-15T06:04:43;2.00;99.90
19363;DHT22;9817;50.80926400;5.16316200;2024-01-15T06:07:08;2.00;99.90
19363;DHT22;9817;50.80926400;5.16316200;2024-01-15T06:09:34;2.10;99.90
19363;DHT22;9817;50.80926400;5.16316200;2024-01-15T06:11:59;2.20;99.90
19363;DHT22;9817;50.80926400;5.16316200;2024-01-15T06:14:25;2.20;99.90
19363;DHT22;9817;50.80926400;5.16316200;2024-01-15T06:16:51;2.10;99.90
19363;DHT22;9817;50.80926400;5.16316200;2024-01-15T06:19:17;2.10;99.90
19363;DHT22;9817;50.80926400;5.16316200;2024-01-15T06:21:43;2.10;99.90
19363;DHT22;9817;50.80926400;5.16316200;2024-01-15T06:24:08;2.20;99.90
19363;DHT22;9817;50.80926400;5.16316200;2024-01-15T06:26:35;2.20;99.90
19363;DHT22;9817;50.80926400;5.16316200;2024-01-15T06:29:01;2.30;99.90
19363;DHT22;9817;50.80926400;5.16316200;2024-01-15T06:31:28;2.20;99.90
19363;DHT22;9817;50.80926400;5.16316200;2024-01-15T06:33:54;2.30;99.90
19363;DHT22;9817;50.80926400;5.16316200;2024-01-15T06:36:20;2.20;99.90
19363;DHT22;9817;50.80926400;5.16316200;2024-01-15T06:38:46;2.10;99.90
19363;DHT22;9817;50.80926400;5.16316200;2024-01-15T06:41:11;1.90;99.90
19363;DHT22;9817;50.80926400;5.16316200;2024-01-15T06:43:37;2.00;99.90
19363;DHT22;9817;50.80926400;5.16316200;2024-01-15T06:46:02;2.10;99.90
19363;DHT22;9817;50.80926400;5.16316200;2024-01-15T06:48:28;2.10;99.90
19363;DHT22;9817;50.80926400;5.16316200;2024-01-15T06:50:54;2.20;99.90
19363;DHT22;9817;50.80926400;5.16316200;2024-01-15T06:53:19;2.30;99.90
19363;DHT22;9817;50.80926400;5.16316200;2024-01-15T06:55:46;2.30;99.90
19363;DHT22;9817;50.80926400;5.16316200;2024-01-15T06:58:11;2.20;99.90
19363;DHT22;9817;50.80926400;5.16316200;2024-01-15T07:00:37;2.00;99.90
19363;DHT22;9817;50.80926400;5.16316200;2024-01-15T07:03:03;2.10;99.90
19363;DHT22;9817;50.80926400;5.16316200;2024-01-15T07:05:29;2.10;99.90
19363;DHT22;9817;50.80926400;5.16316200;2024-01-15T07:07:56;2.20;99.90
19363;DHT22;9817;50.80926400;5.16316200;2024-01-15T07:10:21;2.30;99.90
19363;DHT22;9817;50.80926400;5.16316200;2024-01-15T07:12:47;2.40;99.90
19363;DHT22;9817;50.80926400;5.16316200;2024-01-15T07:15:13;2.40;99.90
19363;DHT22;9817;50.80926400;5.16316200;2024-01-15T07:17:38;2.50;99.90
19363;DHT22;9817;50.80926400;5.16316200;2024-01-15T07:20:07;2.40;99.90
19363;DHT22;9817;50.80926400;5.16316200;2024-01-15T07:22:36;2.40;99.90
19363;DHT22;9817;50.80926400;5.16316200;2024-01-15T07:25:01;2.30;99.90
19363;DHT22;9817;50.80926400;5.16316200;2024-01-15T07:27:27;2.40;99.90
19363;DHT22;9817;50.80926400;5.16316200;2024-01-15T07:29:53;2.40;99.90
19363;DHT22;9817;50.80926400;5.16316200;2024-01-15T07:32:18;2.40;99.90
19363;DHT22;9817;50.80926400;5.16316200;2024-01-15T07:34:46;2.40;99.90
19363;DHT22;9817;50.80926400;5.16316200;2024-01-15T07:37:11;2.50;99.90
19363;DHT22;9817;50.80926400;5.16316200;2024-01-15T07:39:37;2.50;99.90
19363;DHT22;9817;50.80926400;5.16316200;2024-01-15T07:42:03;2.50;99.90
19363;DHT22;9817;50.80926400;5.16316200;2024-01-15T07:44:29;2.40;99.90
19363;DHT22;9817;50.80926400;5.16316200;2024-01-15T07:46:55;2.40;99.90
19363;DHT22;9817;50.80926400;5.16316200;2024-01-15T07:49:20;2.50;99.90
19363;DHT22;9817;50.80926400;5.16316200;2024-01-15T07:51:46;2.50;99.90
19363;DHT22;9817;50.80926400;5.16316200;2024-01-15T07:54:11;2.50;99.90
19363;DHT22;9817;50.80926400;5.16316200;2024-01-15T07:56:56;2.50;99.90
19363;DHT22;9817;50.80926400;5.16316200;2024-01-15T07:59:23;2.70;99.90
19363;DHT22;9817;50.80926400;5.16316200;2024-01-15T08:01:49;2.80;99.90
19363;DHT22;9817;50.80926400;5.16316200;2024-01-15T08:04:14;2.80;99.90
19363;DHT22;9817;50.80926400;5.16316200;2024-01-15T08:06:40;2.80;99.90
19363;DHT22;9817;50.80926400;5.16316200;2024-01-15T08:09:06;2.80;99.90
19363;DHT22;9817;50.80926400;5.16316200;2024-01-15T08:11:31;2.80;99.90
19363;DHT22;9817;50.80926400;5.16316200;2024-01-15T08:13:57;2.70;99.90
19363;DHT22;9817;50.80926400;5.16316200;2024-01-15T08:16:23;2.70;99.90
19363;DHT22;9817;50.80926400;5.16316200;2024-01-15T08:18:50;2.70;99.90
19363;DHT22;9817;50.80926400;5.16316200;2024-01-15T08:21:16;2.90;99.90
19363;DHT22;9817;50.80926400;5.16316200;2024-01-15T08:23:41;3.00;99.90
19363;DHT22;9817;50.80926400;5.16316200;2024-01-15T08:26:07;2.90;99.90
19363;DHT22;9817;50.80926400;5.16316200;2024-01-15T08:28:34;2.70;99.90
19363;DHT22;9817;50.80926400;5.16316200;2024-01-15T08:31:00;2.80;99.90
19363;DHT22;9817;50.80926400;5.16316200;2024-01-15T08:33:25;2.80;99.90
19363;DHT22;9817;50.80926400;5.16316200;2024-01-15T08:35:51;2.90;99.90
19363;DHT22;9817;50.80926400;5.16316200;2024-01-15T08:38:19;2.90;99.90
19363;DHT22;9817;50.80926400;5.16316200;2024-01-15T08:40:45;2.90;99.90
19363;DHT22;9817;50.80926400;5.16316200;2024-01-15T08:43:10;2.80;99.90
19363;DHT22;9817;50.80926400;5.16316200;2024-01-15T08:45:36;2.70;99.90
19363;DHT22;9817;50.80926400;5.16316200;2024-01-15T08:48:01;2.70;99.90
19363;DHT22;9817;50.80926400;5.16316200;2024-01-15T08:50:29;2.70;99.90
19363;DHT22;9817;50.80926400;5.16316200;2024-01-15T08:52:55;2.80;99.90
19363;DHT22;9817;50.80926400;5.16316200;2024-01-15T08:55:21;2.90;99.90
19363;DHT22;9817;50.80926400;5.16316200;2024-01-15T08:57:48;3.00;99.90
19363;DHT22;9817;50.80926400;5.16316200;2024-01-15T09:00:14;3.10;99.90
19363;DHT22;9817;50.80926400;5.16316200;2024-01-15T09:02:40;3.10;99.90
19363;DHT22;9817;50.80926400;5.16316200;2024-01-15T09:05:05;3.20;99.90
19363;DHT22;9817;50.80926400;5.16316200;2024-01-15T09:07:32;3.10;99.90
19363;DHT22;9817;50.80926400;5.16316200;2024-01-15T09:09:58;3.10;99.90
19363;DHT22;9817;50.80926400;5.16316200;2024-01-15T09:12:27;3.10;99.90
19363;DHT22;9817;50.80926400;5.16316200;2024-01-15T09:14:53;3.00;99.90
19363;DHT22;9817;50.80926400;5.16316200;2024-01-15T09:17:20;3.10;99.90
19363;DHT22;9817;50.80926400;5.16316200;2024-01-15T09:19:47;3.10;99.90
19363;DHT22;9817;50.80926400;5.16316200;2024-01-15T09:22:13;3.20;99.90
19363;DHT22;9817;50.80926400;5.16316200;2024-01-15T09:24:42;3.30;99.90
19363;DHT22;9817;50.80926400;5.16316200;2024-01-15T09:27:08;3.20;99.90
19363;DHT22;9817;50.80926400;5.16316200;2024-01-15T09:29:34;3.30;99.90
19363;DHT22;9817;50.80926400;5.16316200;2024-01-15T09:32:02;3.20;99.90
19363;DHT22;9817;50.80926400;5.16316200;2024-01-15T09:34:28;3.20;99.90
19363;DHT22;9817;50.80926400;5.16316200;2024-01-15T09:36:54;3.30;99.90
19363;DHT22;9817;50.80926400;5.16316200;2024-01-15T09:39:20;3.20;99.90
19363;DHT22;9817;50.80926400;5.16316200;2024-01-15T09:41:46;3.30;99.90
19363;DHT22;9817;50.80926400;5.16316200;2024-01-15T09:44:13;3.60;99.90
19363;DHT22;9817;50.80926400;5.16316200;2024-01-15T09:46:39;3.90;99.90
19363;DHT22;9817;50.80926400;5.16316200;2024-01-15T09:49:05;4.10;99.90
19363;DHT22;9817;50.80926400;5.16316200;2024-01-15T09:51:31;4.20;99.90
19363;DHT22;9817;50.80926400;5.16316200;2024-01-15T09:53:58;4.40;99.90
19363;DHT22;9817;50.80926400;5.16316200;2024-01-15T09:56:24;4.50;99.90
19363;DHT22;9817;50.80926400;5.16316200;2024-01-15T09:58:50;4.60;99.90
19363;DHT22;9817;50.80926400;5.16316200;2024-01-15T10:01:19;4.60;99.90
19363;DHT22;9817;50.80926400;5.16316200;2024-01-15T10:03:45;4.70;99.90
19363;DHT22;9817;50.80926400;5.16316200;2024-01-15T10:06:15;4.90;99.90
19363;DHT22;9817;50.80926400;5.16316200;2024-01-15T10:08:49;4.80;99.90
19363;DHT22;9817;50.80926400;5.16316200;2024-01-15T10:11:15;4.70;99.90
19363;DHT22;9817;50.80926400;5.16316200;2024-01-15T10:13:40;4.50;99.90
19363;DHT22;9817;50.80926400;5.16316200;2024-01-15T10:16:06;4.50;99.90
19363;DHT22;9817;50.80926400;5.16316200;2024-01-15T10:18:32;4.60;99.90
19363;DHT22;9817;50.80926400;5.16316200;2024-01-15T10:20:58;4.80;99.90
19363;DHT22;9817;50.80926400;5.16316200;2024-01-15T10:23:27;4.70;99.90
19363;DHT22;9817;50.80926400;5.16316200;2024-01-15T10:25:52;4.70;99.90
19363;DHT22;9817;50.80926400;5.16316200;2024-01-15T10:28:19;4.70;99.90
19363;DHT22;9817;50.80926400;5.16316200;2024-01-15T10:30:44;4.60;99.90
19363;DHT22;9817;50.80926400;5.16316200;2024-01-15T10:33:10;4.70;99.90
19363;DHT22;9817;50.80926400;5.16316200;2024-01-15T10:35:37;4.90;99.90
19363;DHT22;9817;50.80926400;5.16316200;2024-01-15T10:38:03;4.90;99.90
19363;DHT22;9817;50.80926400;5.16316200;2024-01-15T10:40:29;5.00;99.90
19363;DHT22;9817;50.80926400;5.16316200;2024-01-15T10:42:55;5.20;99.90
19363;DHT22;9817;50.80926400;5.16316200;2024-01-15T10:45:21;5.20;99.90
19363;DHT22;9817;50.80926400;5.16316200;2024-01-15T10:47:47;5.40;99.90
19363;DHT22;9817;50.80926400;5.16316200;2024-01-15T10:50:14;5.50;99.90
19363;DHT22;9817;50.80926400;5.16316200;2024-01-15T10:52:40;5.70;99.90
19363;DHT22;9817;50.80926400;5.16316200;2024-01-15T10:55:10;5.80;99.90
19363;DHT22;9817;50.80926400;5.16316200;2024-01-15T10:57:37;5.70;99.90
19363;DHT22;9817;50.80926400;5.16316200;2024-01-15T11:00:04;5.70;99.90
19363;DHT22;9817;50.80926400;5.16316200;2024-01-15T11:02:35;5.70;99.90
19363;DHT22;9817;50.80926400;5.16316200;2024-01-15T11:05:01;5.50;99.90
19363;DHT22;9817;50.80926400;5.16316200;2024-01-15T11:07:27;5.50;99.90
19363;DHT22;9817;50.80926400;5.16316200;2024-01-15T11:09:55;5.60;99.90
19363;DHT22;9817;50.80926400;5.16316200;2024-01-15T11:12:20;5.60;99.90
19363;DHT22;9817;50.80926400;5.16316200;2024-01-15T11:14:48;5.60;99.90
19363;DHT22;9817;50.80926400;5.16316200;2024-01-15T11:17:15;5.70;99.90
19363;DHT22;9817;50.80926400;5.16316200;2024-01-15T11:19:46;5.60;99.90
19363;DHT22;9817;50.80926400;5.16316200;2024-01-15T11:24:57;5.60;99.90
19363;DHT22;9817;50.80926400;5.16316200;2024-01-15T11:27:49;5.80;99.90
19363;DHT22;9817;50.80926400;5.16316200;2024-01-15T11:30:19;5.80;99.90
19363;DHT22;9817;50.80926400;5.16316200;2024-01-15T11:32:47;5.70;99.90
19363;DHT22;9817;50.80926400;5.16316200;2024-01-15T11:35:13;5.80;99.90
19363;DHT22;9817;50.80926400;5.16316200;2024-01-15T11:43:05;5.90;99.90
19363;DHT22;9817;50.80926400;5.16316200;2024-01-15T11:45:31;6.30;99.90
19363;DHT22;9817;50.80926400;5.16316200;2024-01-15T11:48:15;6.30;99.90
19363;DHT22;9817;50.80926400;5.16316200;2024-01-15T11:53:27;6.30;99.90
19363;DHT22;9817;50.80926400;5.16316200;2024-01-15T11:55:58;6.10;99.90
19363;DHT22;9817;50.80926400;5.16316200;2024-01-15T11:58:25;6.20;99.90
19363;DHT22;9817;50.80926400;5.16316200;2024-01-15T12:00:52;6.00;99.90
19363;DHT22;9817;50.80926400;5.16316200;2024-01-15T12:03:23;5.90;99.90
19363;DHT22;9817;50.80926400;5.16316200;2024-01-15T12:05:50;5.80;99.90
19363;DHT22;9817;50.80926400;5.16316200;2024-01-15T12:08:21;5.80;99.90
19363;DHT22;9817;50.80926400;5.16316200;2024-01-15T12:10:47;5.80;99.90
19363;DHT22;9817;50.80926400;5.16316200;2024-01-15T12:13:14;5.80;99.90
19363;DHT22;9817;50.80926400;5.16316200;2024-01-15T12:15:42;5.90;99.90
19363;DHT22;9817;50.80926400;5.16316200;2024-01-15T12:18:09;5.80;99.90
19363;DHT22;9817;50.80926400;5.16316200;2024-01-15T12:20:36;5.90;99.90
19363;DHT22;9817;50.80926400;5.16316200;2024-01-15T12:23:02;6.00;99.90
19363;DHT22;9817;50.80926400;5.16316200;2024-01-15T12:25:35;6.00;99.90
19363;DHT22;9817;50.80926400;5.16316200;2024-01-15T12:28:01;6.00;99.90
19363;DHT22;9817;50.80926400;5.16316200;2024-01-15T12:30:28;6.00;99.90
19363;DHT22;9817;50.80926400;5.16316200;2024-01-15T12:32:54;5.80;99.90
19363;DHT22;9817;50.80926400;5.16316200;2024-01-15T12:35:20;5.60;99.90
19363;DHT22;9817;50.80926400;5.16316200;2024-01-15T12:37:45;5.40;99.90
19363;DHT22;9817;50.80926400;5.16316200;2024-01-15T12:40:13;5.40;99.90
19363;DHT22;9817;50.80926400;5.16316200;2024-01-15T12:42:40;5.50;99.90
19363;DHT22;9817;50.80926400;5.16316200;2024-01-15T12:45:06;5.50;99.90
19363;DHT22;9817;50.80926400;5.16316200;2024-01-15T12:47:32;5.30;99.90
19363;DHT22;9817;50.80926400;5.16316200;2024-01-15T12:49:58;5.20;99.90
19363;DHT22;9817;50.80926400;5.16316200;2024-01-15T12:52:28;5.20;99.90
19363;DHT22;9817;50.80926400;5.16316200;2024-01-15T12:54:54;5.20;99.90
19363;DHT22;9817;50.80926400;5.16316200;2024-01-15T12:57:19;5.10;99.90
19363;DHT22;9817;50.80926400;5.16316200;2024-01-15T12:59:46;4.70;99.90
19363;DHT22;9817;50.80926400;5.16316200;2024-01-15T13:02:12;4.20;99.90
19363;DHT22;9817;50.80926400;5.16316200;2024-01-15T13:04:38;3.70;99.90
19363;DHT22;9817;50.80926400;5.16316200;2024-01-15T13:07:05;3.30;99.90
19363;DHT22;9817;50.80926400;5.16316200;2024-01-15T13:09:31;3.20;99.90
19363;DHT22;9817;50.80926400;5.16316200;2024-01-15T13:11:57;3.20;99.90
19363;DHT22;9817;50.80926400;5.16316200;2024-01-15T13:14:23;3.50;99.90
19363;DHT22;9817;50.80926400;5.16316200;2024-01-15T13:16:48;4.00;99.90
19363;DHT22;9817;50.80926400;5.16316200;2024-01-15T13:19:14;4.40;99.90
19363;DHT22;9817;50.80926400;5.16316200;2024-01-15T13:21:43;4.50;99.90
19363;DHT22;9817;50.80926400;5.16316200;2024-01-15T13:24:08;4.40;99.90
19363;DHT22;9817;50.80926400;5.16316200;2024-01-15T13:26:35;4.20;99.90
19363;DHT22;9817;50.80926400;5.16316200;2024-01-15T13:29:02;4.10;99.90
19363;DHT22;9817;50.80926400;5.16316200;2024-01-15T13:31:29;3.80;99.90
19363;DHT22;9817;50.80926400;5.16316200;2024-01-15T13:33:55;3.40;99.90
19363;DHT22;9817;50.80926400;5.16316200;2024-01-15T13:36:22;3.10;99.90
19363;DHT22;9817;50.80926400;5.16316200;2024-01-15T13:38:49;3.00;99.90
19363;DHT22;9817;50.80926400;5.16316200;2024-01-15T13:41:15;2.90;99.90
19363;DHT22;9817;50.80926400;5.16316200;2024-01-15T13:43:41;2.70;99.90
19363;DHT22;9817;50.80926400;5.16316200;2024-01-15T13:46:06;2.80;99.90
19363;DHT22;9817;50.80926400;5.16316200;2024-01-15T13:48:32;3.00;99.90
19363;DHT22;9817;50.80926400;5.16316200;2024-01-15T13:50:58;3.10;99.90
19363;DHT22;9817;50.80926400;5.16316200;2024-01-15T13:53:25;3.30;99.90